Time;durP1;ratioP1;P1;durP2;ratioP2;P2;SDS_P1;SDS_P2;PMS_P1;PMS_P2;Temp;Humidity;BMP_temperature;BMP_pressure;BME280_temperature;BME280_humidity;BME280_pressure;Samples;Min_cycle;Max_cycle;Signal;HPM_P1;HPM_P2
2024/04/08 00:00:21;;;;;;;;;5.67;5.67;;;;;;;;5081758;28;45425;-78
2024/04/08 00:02:49;;;;;;;;;5.33;5.33;;;;;;;;5081484;28;45375;-78
2024/04/08 00:05:15;;;;;;;;;4.00;4.00;;;;;;;;5081589;28;45338;-78
2024/04/08 00:07:40;;;;;;;;;4.00;4.00;;;;;;;;5081807;28;45337;-79
2024/04/08 00:10:06;;;;;;;;;4.00;4.00;;;;;;;;5081609;28;45390;-78
2024/04/08 00:12:31;;;;;;;;;5.33;5.33;;;;;;;;5081510;28;45195;-78
2024/04/08 00:14:56;;;;;;;;;7.33;5.67;;;;;;;;5080272;28;45310;-78
2024/04/08 00:17:21;;;;;;;;;4.00;4.00;;;;;;;;5081714;28;45199;-78
2024/04/08 00:19:46;;;;;;;;;4.00;4.00;;;;;;;;5081126;28;45548;-78
2024/04/08 00:22:12;;;;;;;;;4.00;4.00;;;;;;;;5079913;28;47423;-78
2024/04/08 00:24:37;;;;;;;;;4.33;4.33;;;;;;;;5081412;28;45237;-78
2024/04/08 00:27:02;;;;;;;;;7.33;3.67;;;;;;;;5080071;28;45261;-79
2024/04/08 00:29:27;;;;;;;;;6.33;4.00;;;;;;;;5081253;28;45221;-78
2024/04/08 00:31:53;;;;;;;;;4.33;2.00;;;;;;;;5079674;28;48004;-78
2024/04/08 00:34:18;;;;;;;;;4.00;4.00;;;;;;;;5079579;28;45294;-78
2024/04/08 00:36:43;;;;;;;;;4.33;3.33;;;;;;;;5080901;28;45292;-78
2024/04/08 00:39:08;;;;;;;;;4.67;3.67;;;;;;;;5060624;28;47291;-78
2024/04/08 00:41:33;;;;;;;;;4.00;4.00;;;;;;;;5060458;28;46308;-78
2024/04/08 00:43:59;;;;;;;;;3.00;3.00;;;;;;;;5060798;28;45327;-77
2024/04/08 00:46:24;;;;;;;;;3.67;3.67;;;;;;;;5060633;28;45224;-78
2024/04/08 00:48:51;;;;;;;;;4.00;4.00;;;;;;;;5060357;28;45330;-78
2024/04/08 00:51:17;;;;;;;;;4.00;4.00;;;;;;;;5060591;28;45585;-77
2024/04/08 00:53:42;;;;;;;;;4.00;4.00;;;;;;;;5071797;28;45294;-78
2024/04/08 00:56:08;;;;;;;;;4.00;4.00;;;;;;;;5080774;28;45293;-78
2024/04/08 00:58:33;;;;;;;;;4.33;4.33;;;;;;;;5097692;27;45328;-78
2024/04/08 01:00:59;;;;;;;;;5.67;5.00;;;;;;;;5101205;27;46301;-78
2024/04/08 01:03:24;;;;;;;;;5.67;4.00;;;;;;;;5100991;27;45309;-78
2024/04/08 01:05:50;;;;;;;;;3.00;3.00;;;;;;;;5101476;27;45422;-78
2024/04/08 01:08:15;;;;;;;;;5.00;4.00;;;;;;;;5101112;27;45476;-77
2024/04/08 01:10:41;;;;;;;;;4.00;4.00;;;;;;;;5099470;27;47039;-78
2024/04/08 01:13:06;;;;;;;;;7.00;5.67;;;;;;;;5101057;27;45206;-78
2024/04/08 01:15:31;;;;;;;;;6.67;6.67;;;;;;;;5101309;27;45576;-77
2024/04/08 01:17:56;;;;;;;;;8.67;7.67;;;;;;;;5100867;27;45562;-77
2024/04/08 01:20:21;;;;;;;;;7.00;7.00;;;;;;;;5100766;27;45605;-78
2024/04/08 01:22:48;;;;;;;;;6.33;6.00;;;;;;;;5100969;27;45293;-78
2024/04/08 01:25:14;;;;;;;;;7.67;7.00;;;;;;;;5101108;27;45388;-77
2024/04/08 01:27:39;;;;;;;;;2.67;2.67;;;;;;;;5100679;27;45505;-78
2024/04/08 01:30:04;;;;;;;;;9.33;8.33;;;;;;;;5100717;27;45296;-78
2024/04/08 01:32:29;;;;;;;;;9.67;9.67;;;;;;;;5100500;27;45203;-78
2024/04/08 01:34:55;;;;;;;;;10.33;9.67;;;;;;;;5100615;27;45474;-78
2024/04/08 01:37:20;;;;;;;;;7.67;7.33;;;;;;;;5099456;27;47097;-78
2024/04/08 01:39:45;;;;;;;;;9.00;9.00;;;;;;;;5100529;27;45339;-78
2024/04/08 01:42:10;;;;;;;;;9.00;9.00;;;;;;;;5099395;27;45255;-78
2024/04/08 01:44:35;;;;;;;;;8.00;7.67;;;;;;;;5100850;27;45160;-79
2024/04/08 01:47:00;;;;;;;;;11.00;8.33;;;;;;;;5100450;27;45324;-78
2024/04/08 01:49:27;;;;;;;;;12.00;8.67;;;;;;;;5100258;27;45357;-78
2024/04/08 01:51:53;;;;;;;;;8.33;6.33;;;;;;;;5100499;27;45247;-77
2024/04/08 01:54:19;;;;;;;;;9.33;9.33;;;;;;;;5099105;27;45301;-78
2024/04/08 01:56:44;;;;;;;;;10.33;8.33;;;;;;;;5097441;27;45490;-78
2024/04/08 01:59:10;;;;;;;;;10.00;9.67;;;;;;;;5079753;28;45322;-78
2024/04/08 02:01:35;;;;;;;;;11.33;9.00;;;;;;;;5079930;28;45485;-78
2024/04/08 02:04:00;;;;;;;;;12.00;10.67;;;;;;;;5078434;28;45374;-78
2024/04/08 02:06:25;;;;;;;;;13.00;10.67;;;;;;;;5080057;28;45468;-78
2024/04/08 02:08:50;;;;;;;;;10.00;9.00;;;;;;;;5083120;28;45422;-78
2024/04/08 02:11:16;;;;;;;;;12.00;9.33;;;;;;;;5086718;28;45424;-78
2024/04/08 02:13:41;;;;;;;;;9.67;9.67;;;;;;;;5085355;28;45330;-78
2024/04/08 02:16:07;;;;;;;;;12.67;12.67;;;;;;;;5066237;28;45322;-78
2024/04/08 02:18:33;;;;;;;;;12.00;12.00;;;;;;;;5064396;28;47030;-78
2024/04/08 02:20:58;;;;;;;;;11.33;10.00;;;;;;;;5065977;28;45320;-78
2024/04/08 02:23:23;;;;;;;;;11.67;11.00;;;;;;;;5065103;28;45248;-78
2024/04/08 02:25:49;;;;;;;;;13.67;11.67;;;;;;;;5066407;28;45266;-78
2024/04/08 02:28:14;;;;;;;;;11.67;9.67;;;;;;;;5066037;28;46390;-78
2024/04/08 02:30:39;;;;;;;;;11.67;11.00;;;;;;;;5066198;28;45282;-78
2024/04/08 02:33:05;;;;;;;;;10.00;7.67;;;;;;;;5066045;28;45216;-78
2024/04/08 02:35:34;;;;;;;;;12.00;10.33;;;;;;;;5065832;28;45292;-78
2024/04/08 02:38:01;;;;;;;;;13.00;11.00;;;;;;;;5064587;28;48258;-78
2024/04/08 02:40:26;;;;;;;;;12.67;11.67;;;;;;;;5065993;28;45284;-78
2024/04/08 02:42:51;;;;;;;;;13.00;11.33;;;;;;;;5065992;28;45553;-78
2024/04/08 02:45:16;;;;;;;;;11.00;11.00;;;;;;;;5064427;28;46291;-78
2024/04/08 02:47:41;;;;;;;;;12.00;9.33;;;;;;;;5075729;28;45207;-78
2024/04/08 02:50:07;;;;;;;;;9.67;9.00;;;;;;;;5086208;27;45254;-78
2024/04/08 02:52:32;;;;;;;;;8.67;6.00;;;;;;;;5086271;27;45261;-77
2024/04/08 02:54:57;;;;;;;;;10.67;9.33;;;;;;;;5085736;27;45489;-78
2024/04/08 02:57:23;;;;;;;;;16.00;15.33;;;;;;;;5085830;27;46017;-77
2024/04/08 02:59:48;;;;;;;;;14.67;11.67;;;;;;;;5085884;28;45328;-77
2024/04/08 03:02:13;;;;;;;;;16.33;15.33;;;;;;;;5086163;28;45306;-78
2024/04/08 03:04:38;;;;;;;;;15.00;12.00;;;;;;;;5085646;28;45547;-78
2024/04/08 03:07:03;;;;;;;;;12.67;12.00;;;;;;;;5084436;28;48365;-78
2024/04/08 03:09:28;;;;;;;;;13.00;12.33;;;;;;;;5085862;28;45357;-78
2024/04/08 03:11:54;;;;;;;;;15.33;13.00;;;;;;;;5086172;28;45309;-77
2024/04/08 03:14:21;;;;;;;;;13.00;13.00;;;;;;;;5084638;28;45978;-78
2024/04/08 03:16:46;;;;;;;;;13.00;13.00;;;;;;;;5085706;28;45412;-77
2024/04/08 03:19:12;;;;;;;;;14.67;12.67;;;;;;;;5084729;28;45336;-78
2024/04/08 03:21:37;;;;;;;;;16.33;15.00;;;;;;;;5080345;28;45246;-78
2024/04/08 03:24:02;;;;;;;;;18.33;17.67;;;;;;;;5082278;28;45325;-78
2024/04/08 03:26:27;;;;;;;;;16.33;14.00;;;;;;;;5082029;28;46198;-78
2024/04/08 03:28:53;;;;;;;;;16.67;15.67;;;;;;;;5082272;28;45307;-78
2024/04/08 03:31:18;;;;;;;;;17.00;16.00;;;;;;;;5082495;28;45216;-78
2024/04/08 03:33:43;;;;;;;;;13.67;13.00;;;;;;;;5080528;28;45924;-78
2024/04/08 03:36:09;;;;;;;;;15.00;15.00;;;;;;;;5081676;28;46099;-78
2024/04/08 03:38:34;;;;;;;;;17.00;15.00;;;;;;;;5080753;28;46076;-78
2024/04/08 03:41:06;;;;;;;;;16.67;16.00;;;;;;;;5082113;28;45302;-78
2024/04/08 03:43:31;;;;;;;;;15.33;15.00;;;;;;;;5082048;28;45322;-78
2024/04/08 03:45:57;;;;;;;;;14.67;14.00;;;;;;;;5081787;28;45943;-78
2024/04/08 03:48:22;;;;;;;;;16.33;15.00;;;;;;;;5081760;28;45318;-78
2024/04/08 03:50:47;;;;;;;;;16.00;14.00;;;;;;;;5080644;28;45329;-78
2024/04/08 03:53:13;;;;;;;;;14.00;13.00;;;;;;;;5081498;28;45331;-78
2024/04/08 03:55:38;;;;;;;;;16.00;15.00;;;;;;;;5081814;28;46096;-78
2024/04/08 03:58:04;;;;;;;;;17.00;14.33;;;;;;;;5094114;27;45349;-78
2024/04/08 04:00:29;;;;;;;;;18.67;16.00;;;;;;;;5101016;27;45297;-79
2024/04/08 04:02:55;;;;;;;;;18.33;17.00;;;;;;;;5092859;27;45299;-78
2024/04/08 04:05:20;;;;;;;;;17.00;15.33;;;;;;;;5081537;28;45976;-78
2024/04/08 04:07:45;;;;;;;;;19.00;18.00;;;;;;;;5080160;28;45464;-78
2024/04/08 04:10:11;;;;;;;;;15.67;14.33;;;;;;;;5081855;28;45366;-78
2024/04/08 04:12:38;;;;;;;;;16.67;15.00;;;;;;;;5080146;28;47183;-78
2024/04/08 04:15:04;;;;;;;;;17.00;15.67;;;;;;;;5080090;28;47092;-78
2024/04/08 04:17:29;;;;;;;;;18.67;18.67;;;;;;;;5081231;28;45649;-78
2024/04/08 04:19:54;;;;;;;;;21.00;18.33;;;;;;;;5081484;28;45552;-78
2024/04/08 04:22:19;;;;;;;;;19.00;18.00;;;;;;;;5080004;28;47073;-78
2024/04/08 04:24:45;;;;;;;;;19.00;18.00;;;;;;;;5081305;28;45364;-78
2024/04/08 04:27:10;;;;;;;;;19.33;19.33;;;;;;;;5081415;28;45267;-78
2024/04/08 04:29:36;;;;;;;;;20.00;17.00;;;;;;;;5081566;28;45363;-78
2024/04/08 04:32:01;;;;;;;;;22.00;20.33;;;;;;;;5081130;28;45805;-78
2024/04/08 04:34:26;;;;;;;;;18.00;17.00;;;;;;;;5080878;28;45337;-78
2024/04/08 04:36:51;;;;;;;;;19.00;18.00;;;;;;;;5079427;28;45324;-78
2024/04/08 04:39:16;;;;;;;;;18.33;18.00;;;;;;;;5081302;28;45297;-78
2024/04/08 04:41:42;;;;;;;;;20.67;17.67;;;;;;;;5081071;28;45306;-78
2024/04/08 04:44:07;;;;;;;;;18.67;17.33;;;;;;;;5079614;28;47127;-78
2024/04/08 04:46:32;;;;;;;;;19.33;19.00;;;;;;;;5081025;28;45248;-78
2024/04/08 04:48:57;;;;;;;;;19.00;18.67;;;;;;;;5080379;28;45482;-78
2024/04/08 04:51:22;;;;;;;;;19.00;18.67;;;;;;;;5080711;28;45246;-78
2024/04/08 04:53:47;;;;;;;;;15.67;14.00;;;;;;;;5078544;28;47223;-78
2024/04/08 04:56:12;;;;;;;;;15.33;14.33;;;;;;;;5079395;28;45354;-78
2024/04/08 04:58:38;;;;;;;;;16.00;15.00;;;;;;;;5099413;27;45439;-79
2024/04/08 05:01:03;;;;;;;;;18.67;17.00;;;;;;;;5101128;27;45491;-78
2024/04/08 05:03:28;;;;;;;;;17.00;16.00;;;;;;;;5099398;27;47276;-78
2024/04/08 05:05:54;;;;;;;;;17.67;17.00;;;;;;;;5101201;27;45338;-78
2024/04/08 05:08:19;;;;;;;;;18.67;16.00;;;;;;;;5101395;27;45313;-78
2024/04/08 05:10:44;;;;;;;;;18.67;17.67;;;;;;;;5101030;27;45379;-78
2024/04/08 05:13:10;;;;;;;;;17.67;17.33;;;;;;;;5099957;27;46307;-78
2024/04/08 05:15:35;;;;;;;;;17.67;16.00;;;;;;;;5101026;27;45490;-78
2024/04/08 05:18:00;;;;;;;;;16.67;16.33;;;;;;;;5100952;27;45353;-78
2024/04/08 05:20:28;;;;;;;;;15.33;15.33;;;;;;;;5100890;27;45467;-77
2024/04/08 05:22:54;;;;;;;;;17.67;17.33;;;;;;;;5100927;27;46019;-78
2024/04/08 05:25:19;;;;;;;;;17.67;17.00;;;;;;;;5100886;27;45213;-78
2024/04/08 05:27:44;;;;;;;;;20.67;18.33;;;;;;;;5101051;27;45284;-78
2024/04/08 05:30:10;;;;;;;;;12.67;11.33;;;;;;;;5099437;27;46237;-77
2024/04/08 05:32:35;;;;;;;;;22.67;18.33;;;;;;;;5100633;27;45281;-78
2024/04/08 05:35:00;;;;;;;;;15.33;15.33;;;;;;;;5098842;27;45320;-78
2024/04/08 05:37:26;;;;;;;;;15.00;14.67;;;;;;;;5100836;27;45380;-78
2024/04/08 05:39:51;;;;;;;;;15.67;15.67;;;;;;;;5100226;27;45390;-78
2024/04/08 05:42:16;;;;;;;;;17.67;17.67;;;;;;;;5101729;27;46294;-79
2024/04/08 05:44:41;;;;;;;;;15.00;15.00;;;;;;;;5104954;27;45851;-79
2024/04/08 05:47:06;;;;;;;;;20.67;18.00;;;;;;;;5102383;27;45373;-79
2024/04/08 05:49:31;;;;;;;;;23.00;22.33;;;;;;;;5101587;27;45368;-80
2024/04/08 05:51:57;;;;;;;;;23.00;19.33;;;;;;;;5101720;27;46455;-81
2024/04/08 05:54:23;;;;;;;;;23.00;19.33;;;;;;;;5100296;27;45476;-80
2024/04/08 05:56:49;;;;;;;;;24.00;22.67;;;;;;;;5097100;27;45263;-81
2024/04/08 05:59:14;;;;;;;;;26.00;20.33;;;;;;;;5080368;28;45244;-80
2024/04/08 06:01:40;;;;;;;;;21.67;21.67;;;;;;;;5080979;28;48126;-80
2024/04/08 06:04:05;;;;;;;;;21.67;20.00;;;;;;;;5083668;28;45521;-80
2024/04/08 06:06:30;;;;;;;;;22.67;22.67;;;;;;;;5085144;28;45365;-80
2024/04/08 06:09:08;;;;;;;;;23.00;21.67;;;;;;;;5085123;28;45410;-80
2024/04/08 06:11:33;;;;;;;;;26.00;24.00;;;;;;;;5083635;28;45337;-80
2024/04/08 06:13:58;;;;;;;;;22.00;20.33;;;;;;;;5083528;28;45256;-80
2024/04/08 06:16:23;;;;;;;;;19.67;19.67;;;;;;;;5070736;28;45324;-79
2024/04/08 06:18:48;;;;;;;;;24.67;21.33;;;;;;;;5069671;28;45323;-80
2024/04/08 06:21:13;;;;;;;;;19.00;18.00;;;;;;;;5077564;28;45318;-78
2024/04/08 06:23:39;;;;;;;;;19.67;18.33;;;;;;;;5070450;28;45445;-78
2024/04/08 06:26:04;;;;;;;;;21.00;20.00;;;;;;;;5068154;28;45253;-77
2024/04/08 06:28:30;;;;;;;;;17.67;15.00;;;;;;;;5076556;28;45429;-77
2024/04/08 06:30:55;;;;;;;;;17.67;15.67;;;;;;;;5079197;28;48402;-79
2024/04/08 06:33:21;;;;;;;;;12.00;11.00;;;;;;;;5083680;28;45240;-78
2024/04/08 06:35:46;;;;;;;;;12.67;11.33;;;;;;;;5081901;28;45349;-78
2024/04/08 06:38:14;;;;;;;;;12.67;9.67;;;;;;;;5080111;28;45475;-79
2024/04/08 06:40:40;;;;;;;;;9.67;8.00;;;;;;;;5079271;28;45305;-77
2024/04/08 06:43:05;;;;;;;;;9.00;9.00;;;;;;;;5086382;28;45335;-76
2024/04/08 06:45:30;;;;;;;;;8.67;8.00;;;;;;;;5080835;28;45405;-78
2024/04/08 06:47:55;;;;;;;;;7.00;7.00;;;;;;;;5080637;28;45590;-77
2024/04/08 06:50:21;;;;;;;;;10.00;10.00;;;;;;;;5087974;28;45472;-78
2024/04/08 06:52:46;;;;;;;;;6.00;6.00;;;;;;;;5089266;28;45308;-78
2024/04/08 06:55:11;;;;;;;;;4.00;4.00;;;;;;;;5084771;28;45508;-78
2024/04/08 06:57:36;;;;;;;;;1.33;1.33;;;;;;;;5102936;27;45535;-78
2024/04/08 07:00:03;;;;;;;;;3.33;3.33;;;;;;;;5108884;27;45344;-77
2024/04/08 07:02:28;;;;;;;;;5.00;4.00;;;;;;;;5106177;27;45517;-77
2024/04/08 07:04:53;;;;;;;;;5.00;5.00;;;;;;;;5106387;27;45256;-78
2024/04/08 07:07:19;;;;;;;;;5.00;4.00;;;;;;;;5105924;27;45321;-78
2024/04/08 07:09:44;;;;;;;;;3.00;3.00;;;;;;;;5106839;27;47257;-77
2024/04/08 07:12:09;;;;;;;;;5.33;4.00;;;;;;;;5107163;27;45345;-78
2024/04/08 07:14:34;;;;;;;;;3.00;3.00;;;;;;;;5104934;27;45283;-80
2024/04/08 07:17:00;;;;;;;;;6.00;5.00;;;;;;;;5111177;27;45258;-78
2024/04/08 07:19:25;;;;;;;;;1.00;1.00;;;;;;;;5078664;27;46114;-78
2024/04/08 07:21:50;;;;;;;;;3.25;3.25;;;;;;;;5072637;28;45255;-77
2024/04/08 07:24:17;;;;;;;;;1.75;1.50;;;;;;;;5086354;28;45182;-80
2024/04/08 07:26:45;;;;;;;;;1.67;1.67;;;;;;;;5082682;28;46555;-80
2024/04/08 07:29:10;;;;;;;;;2.25;2.25;;;;;;;;5083135;28;46209;-78
2024/04/08 07:31:35;;;;;;;;;0.00;0.00;;;;;;;;5090445;28;45366;-77
2024/04/08 07:34:00;;;;;;;;;2.75;2.75;;;;;;;;5074316;28;45462;-79
2024/04/08 07:36:25;;;;;;;;;1.75;1.75;;;;;;;;5074000;28;45393;-77
2024/04/08 07:38:50;;;;;;;;;3.33;2.00;;;;;;;;5085202;28;46280;-78
2024/04/08 07:41:17;;;;;;;;;2.67;2.67;;;;;;;;5082191;28;45416;-77
2024/04/08 07:43:43;;;;;;;;;3.00;3.00;;;;;;;;5082378;28;45259;-77
2024/04/08 07:46:08;;;;;;;;;2.00;2.00;;;;;;;;5081973;28;45285;-77
2024/04/08 07:48:33;;;;;;;;;3.00;3.00;;;;;;;;5081515;28;45448;-77
2024/04/08 07:50:58;;;;;;;;;2.00;0.25;;;;;;;;5082125;28;45218;-78
2024/04/08 07:53:24;;;;;;;;;1.75;1.75;;;;;;;;5081934;28;45205;-77
2024/04/08 07:55:49;;;;;;;;;0.25;0.25;;;;;;;;5080622;27;46093;-77
2024/04/08 07:59:35;;;;;;;;;2.67;2.67;;;;;;;;5590065;25;43884;-78
2024/04/08 08:02:00;;;;;;;;;0.00;0.00;;;;;;;;5562974;25;43988;-76
2024/04/08 08:04:25;;;;;;;;;2.00;2.00;;;;;;;;5597538;25;43927;-77
2024/04/08 08:06:50;;;;;;;;;2.33;2.33;;;;;;;;5594981;25;43940;-79
2024/04/08 08:09:16;;;;;;;;;2.00;1.00;;;;;;;;5596801;25;44885;-79
2024/04/08 08:11:41;;;;;;;;;2.67;2.67;;;;;;;;5596514;25;43900;-78
2024/04/08 08:14:06;;;;;;;;;2.33;2.33;;;;;;;;5563537;25;43751;-78
2024/04/08 08:16:31;;;;;;;;;2.00;2.00;;;;;;;;5596647;25;44096;-79
2024/04/08 08:18:57;;;;;;;;;1.67;1.67;;;;;;;;5596196;25;45269;-79
2024/04/08 08:21:22;;;;;;;;;2.00;2.00;;;;;;;;5596775;25;43776;-79
2024/04/08 08:23:47;;;;;;;;;2.67;2.67;;;;;;;;5597853;25;43713;-79
2024/04/08 08:26:12;;;;;;;;;2.00;2.00;;;;;;;;5562830;25;45924;-79
2024/04/08 08:28:37;;;;;;;;;3.00;3.00;;;;;;;;5596627;25;43728;-79
2024/04/08 08:31:03;;;;;;;;;4.00;2.00;;;;;;;;5577281;25;44089;-79
2024/04/08 08:33:28;;;;;;;;;1.00;1.00;;;;;;;;5559132;25;43973;-80
2024/04/08 08:35:53;;;;;;;;;1.00;1.00;;;;;;;;5554536;25;44871;-80
2024/04/08 08:38:19;;;;;;;;;2.25;2.00;;;;;;;;5557509;25;46866;-78
2024/04/08 08:40:45;;;;;;;;;0.50;0.50;;;;;;;;5588796;25;44487;-79
2024/04/08 08:43:10;;;;;;;;;2.67;2.33;;;;;;;;5596255;25;43741;-78
2024/04/08 08:45:40;;;;;;;;;3.67;3.67;;;;;;;;5562310;25;44580;-78
2024/04/08 08:48:06;;;;;;;;;2.00;2.00;;;;;;;;5595312;25;43938;-78
2024/04/08 08:50:32;;;;;;;;;2.33;2.33;;;;;;;;5595298;25;43870;-78
2024/04/08 08:52:57;;;;;;;;;1.33;1.33;;;;;;;;5596127;25;43847;-78
2024/04/08 08:55:23;;;;;;;;;0.75;0.75;;;;;;;;5597083;25;43839;-78
2024/04/08 08:57:49;;;;;;;;;2.00;2.00;;;;;;;;5595698;25;43956;-78
2024/04/08 09:00:15;;;;;;;;;1.00;1.00;;;;;;;;5562565;25;43915;-78
2024/04/08 09:02:40;;;;;;;;;3.00;2.00;;;;;;;;5596842;25;44294;-78
2024/04/08 09:05:05;;;;;;;;;2.00;2.00;;;;;;;;5596652;25;43981;-78
2024/04/08 09:07:31;;;;;;;;;2.00;2.00;;;;;;;;5564068;25;46442;-78
2024/04/08 09:09:56;;;;;;;;;3.00;1.00;;;;;;;;5547429;25;43934;-79
2024/04/08 09:12:22;;;;;;;;;2.00;2.00;;;;;;;;5537091;25;43825;-79
2024/04/08 09:14:48;;;;;;;;;11.00;9.00;;;;;;;;5559797;25;43842;-80
2024/04/08 09:17:14;;;;;;;;;10.67;8.00;;;;;;;;5545247;25;46050;-80
2024/04/08 09:19:39;;;;;;;;;3.00;3.00;;;;;;;;5578599;25;43941;-80
2024/04/08 09:22:05;;;;;;;;;2.25;2.25;;;;;;;;5579409;25;43973;-80
2024/04/08 09:24:30;;;;;;;;;2.25;2.25;;;;;;;;5578767;25;44024;-79
2024/04/08 09:26:56;;;;;;;;;1.50;1.50;;;;;;;;5572102;25;44820;-79
2024/04/08 09:29:21;;;;;;;;;2.00;2.00;;;;;;;;5540985;25;44392;-79
2024/04/08 09:31:46;;;;;;;;;2.00;1.00;;;;;;;;5541202;25;43783;-79
2024/04/08 09:34:11;;;;;;;;;2.00;2.00;;;;;;;;5541213;25;44015;-79
2024/04/08 09:36:38;;;;;;;;;3.25;2.00;;;;;;;;5540705;25;44722;-79
2024/04/08 09:39:04;;;;;;;;;2.00;2.00;;;;;;;;5541404;25;44195;-77
2024/04/08 09:41:29;;;;;;;;;1.75;1.75;;;;;;;;5539840;25;43707;-77
2024/04/08 09:43:55;;;;;;;;;3.50;3.25;;;;;;;;5539613;25;44172;-77
2024/04/08 09:46:20;;;;;;;;;2.00;2.00;;;;;;;;5539815;25;45697;-77
2024/04/08 09:48:46;;;;;;;;;4.75;3.00;;;;;;;;5541059;25;43951;-77
2024/04/08 09:51:11;;;;;;;;;2.75;2.00;;;;;;;;5541491;25;44031;-77
2024/04/08 09:53:37;;;;;;;;;2.00;2.00;;;;;;;;5539547;25;43868;-77
2024/04/08 09:56:03;;;;;;;;;2.00;2.00;;;;;;;;5541210;25;43886;-76
2024/04/08 09:58:31;;;;;;;;;2.75;1.00;;;;;;;;5573235;25;43921;-77
2024/04/08 10:00:57;;;;;;;;;1.75;1.75;;;;;;;;5578280;25;44013;-77
2024/04/08 10:03:28;;;;;;;;;3.25;3.00;;;;;;;;5578521;25;43895;-77
2024/04/08 10:05:53;;;;;;;;;2.00;2.00;;;;;;;;5578937;25;44794;-77
2024/04/08 10:08:18;;;;;;;;;2.75;2.75;;;;;;;;5545668;25;43908;-77
2024/04/08 10:10:44;;;;;;;;;3.00;3.00;;;;;;;;5579129;25;44181;-77
2024/04/08 10:13:09;;;;;;;;;3.00;3.00;;;;;;;;5578902;25;43800;-77
2024/04/08 10:15:36;;;;;;;;;3.75;3.75;;;;;;;;5578838;25;45496;-77
2024/04/08 10:18:03;;;;;;;;;2.00;2.00;;;;;;;;5578484;25;43881;-77
2024/04/08 10:20:28;;;;;;;;;3.25;3.25;;;;;;;;5578940;25;43989;-77
2024/04/08 10:22:53;;;;;;;;;3.00;3.00;;;;;;;;5578535;25;43853;-77
2024/04/08 10:25:31;;;;;;;;;4.00;4.00;;;;;;;;5544866;25;46773;-78
2024/04/08 10:28:02;;;;;;;;;3.75;3.75;;;;;;;;5578794;25;43962;-77
2024/04/08 10:30:27;;;;;;;;;3.00;2.25;;;;;;;;5579124;25;43766;-77
2024/04/08 10:32:53;;;;;;;;;2.25;2.25;;;;;;;;5544609;25;45816;-78
2024/04/08 10:35:18;;;;;;;;;2.25;2.25;;;;;;;;5578480;25;43996;-77
2024/04/08 10:37:43;;;;;;;;;2.75;2.25;;;;;;;;5578622;25;43914;-77
2024/04/08 10:40:10;;;;;;;;;2.25;2.00;;;;;;;;5578713;25;44092;-78
2024/04/08 10:42:35;;;;;;;;;4.75;3.00;;;;;;;;5541892;25;44802;-79
2024/04/08 10:45:00;;;;;;;;;3.00;3.00;;;;;;;;5541223;25;45844;-77
2024/04/08 10:47:25;;;;;;;;;4.25;4.00;;;;;;;;5577074;25;43858;-77
2024/04/08 10:49:51;;;;;;;;;2.25;2.25;;;;;;;;5578301;25;44041;-78
2024/04/08 10:52:16;;;;;;;;;5.00;4.75;;;;;;;;5571254;25;43922;-77
2024/04/08 10:54:41;;;;;;;;;4.00;4.00;;;;;;;;5543726;25;45651;-77
2024/04/08 10:57:06;;;;;;;;;5.00;3.25;;;;;;;;5571591;25;43917;-76
2024/04/08 10:59:31;;;;;;;;;4.00;3.00;;;;;;;;5575137;25;44043;-76
2024/04/08 11:01:57;;;;;;;;;4.25;3.00;;;;;;;;5557742;25;43882;-76
2024/04/08 11:04:23;;;;;;;;;4.25;4.00;;;;;;;;5574570;25;43998;-77
2024/04/08 11:06:48;;;;;;;;;2.50;2.50;;;;;;;;5576093;25;43861;-77
2024/04/08 11:09:13;;;;;;;;;3.50;3.50;;;;;;;;5570385;25;43817;-77
2024/04/08 11:11:38;;;;;;;;;3.00;3.00;;;;;;;;5545932;25;43969;-76
2024/04/08 11:14:05;;;;;;;;;7.25;4.50;;;;;;;;5564389;25;44051;-76
2024/04/08 11:16:30;;;;;;;;;4.75;3.00;;;;;;;;5557399;25;44302;-77
2024/04/08 11:18:55;;;;;;;;;4.00;3.75;;;;;;;;5577038;25;43822;-77
2024/04/08 11:21:20;;;;;;;;;5.75;5.75;;;;;;;;5577594;25;43963;-76
2024/04/08 11:23:45;;;;;;;;;4.00;3.00;;;;;;;;5543047;25;45701;-77
2024/04/08 11:26:11;;;;;;;;;4.00;4.00;;;;;;;;5577489;25;43835;-77
2024/04/08 11:28:37;;;;;;;;;3.00;3.00;;;;;;;;5544154;25;43980;-77
2024/04/08 11:31:06;;;;;;;;;3.00;3.00;;;;;;;;5577098;25;44039;-77
2024/04/08 11:33:31;;;;;;;;;3.00;2.25;;;;;;;;5576430;25;44986;-77
2024/04/08 11:35:56;;;;;;;;;4.75;4.75;;;;;;;;5541275;25;43853;-77
2024/04/08 11:38:21;;;;;;;;;2.75;2.75;;;;;;;;5577534;25;43962;-77
2024/04/08 11:40:47;;;;;;;;;5.75;4.75;;;;;;;;5577376;25;43926;-77
2024/04/08 11:43:13;;;;;;;;;4.00;4.00;;;;;;;;5544329;25;45685;-77
2024/04/08 11:45:38;;;;;;;;;5.00;4.25;;;;;;;;5577488;25;43941;-77
2024/04/08 11:48:04;;;;;;;;;4.25;2.75;;;;;;;;5542230;25;44010;-77
2024/04/08 11:50:29;;;;;;;;;5.00;5.00;;;;;;;;5533166;25;45117;-77
2024/04/08 11:52:54;;;;;;;;;5.75;4.25;;;;;;;;5577153;25;43867;-77
2024/04/08 11:55:19;;;;;;;;;5.25;4.00;;;;;;;;5543398;25;43939;-76
2024/04/08 11:57:44;;;;;;;;;6.75;4.75;;;;;;;;5543177;25;43816;-77
2024/04/08 12:00:12;;;;;;;;;5.75;4.00;;;;;;;;5575504;25;44196;-77
2024/04/08 12:02:37;;;;;;;;;3.00;3.00;;;;;;;;5547890;25;45229;-77
2024/04/08 12:05:03;;;;;;;;;2.75;2.75;;;;;;;;5543629;25;45133;-76
2024/04/08 12:07:28;;;;;;;;;5.00;4.50;;;;;;;;5576464;25;43770;-76
2024/04/08 12:09:53;;;;;;;;;4.50;4.00;;;;;;;;5577501;25;43722;-76
2024/04/08 12:12:19;;;;;;;;;7.00;5.00;;;;;;;;5543553;25;45790;-76
2024/04/08 12:14:44;;;;;;;;;3.50;3.50;;;;;;;;5577265;25;43843;-76
2024/04/08 12:17:09;;;;;;;;;2.25;2.25;;;;;;;;5576776;25;44086;-77
2024/04/08 12:19:34;;;;;;;;;6.75;5.00;;;;;;;;5543520;25;44516;-76
2024/04/08 12:21:59;;;;;;;;;6.50;5.50;;;;;;;;5577024;25;44827;-76
2024/04/08 12:24:24;;;;;;;;;4.25;4.25;;;;;;;;5543374;25;43919;-76
2024/04/08 12:26:50;;;;;;;;;4.00;4.00;;;;;;;;5543546;25;43828;-78
2024/04/08 12:29:15;;;;;;;;;6.00;5.75;;;;;;;;5576662;25;43863;-76
2024/04/08 12:31:41;;;;;;;;;5.50;3.25;;;;;;;;5576577;25;44120;-76
2024/04/08 12:34:07;;;;;;;;;5.00;4.00;;;;;;;;5575778;25;43962;-77
2024/04/08 12:36:32;;;;;;;;;7.25;4.00;;;;;;;;5541914;25;43920;-76
2024/04/08 12:38:58;;;;;;;;;4.25;4.00;;;;;;;;5575641;25;43841;-76
2024/04/08 12:41:23;;;;;;;;;5.25;4.50;;;;;;;;5538152;25;45592;-76
2024/04/08 12:43:48;;;;;;;;;4.00;4.00;;;;;;;;5576570;25;43835;-79
2024/04/08 12:46:14;;;;;;;;;4.00;4.00;;;;;;;;5542515;25;43872;-77
2024/04/08 12:48:39;;;;;;;;;6.50;4.25;;;;;;;;5528209;25;46136;-77
2024/04/08 12:51:04;;;;;;;;;7.00;5.75;;;;;;;;5576940;25;44118;-76
2024/04/08 12:53:29;;;;;;;;;7.00;5.00;;;;;;;;5578910;25;43804;-75
2024/04/08 12:55:56;;;;;;;;;5.00;5.00;;;;;;;;5545030;25;43962;-78
2024/04/08 12:58:21;;;;;;;;;6.00;5.75;;;;;;;;5578304;25;44013;-78
2024/04/08 13:00:47;;;;;;;;;8.75;8.50;;;;;;;;5580219;25;43977;-78
2024/04/08 13:03:12;;;;;;;;;5.25;4.25;;;;;;;;5580926;25;43902;-76
2024/04/08 13:05:39;;;;;;;;;5.00;3.25;;;;;;;;5580583;25;43857;-77
2024/04/08 13:08:06;;;;;;;;;8.75;6.00;;;;;;;;5578590;25;44007;-77
2024/04/08 13:10:31;;;;;;;;;5.00;5.00;;;;;;;;5578444;25;44858;-78
2024/04/08 13:12:56;;;;;;;;;8.50;5.25;;;;;;;;5578091;25;44013;-77
2024/04/08 13:15:22;;;;;;;;;5.00;4.25;;;;;;;;5578687;25;44050;-78
2024/04/08 13:17:47;;;;;;;;;6.75;5.75;;;;;;;;5544546;25;45971;-77
2024/04/08 13:20:12;;;;;;;;;4.75;3.75;;;;;;;;5578904;25;43973;-75
2024/04/08 13:22:38;;;;;;;;;5.25;5.00;;;;;;;;5521782;25;44036;-77
2024/04/08 13:25:03;;;;;;;;;6.00;5.00;;;;;;;;5576530;25;43831;-76
2024/04/08 13:27:29;;;;;;;;;7.50;6.75;;;;;;;;5577912;25;44330;-78
2024/04/08 13:29:54;;;;;;;;;5.00;5.00;;;;;;;;5579050;25;44645;-77
2024/04/08 13:32:19;;;;;;;;;7.25;5.25;;;;;;;;5579143;25;44017;-79
2024/04/08 13:34:44;;;;;;;;;6.00;6.00;;;;;;;;5577556;25;43780;-77
2024/04/08 13:37:12;;;;;;;;;8.50;8.50;;;;;;;;5577312;25;44065;-76
2024/04/08 13:39:41;;;;;;;;;6.00;5.50;;;;;;;;5578546;25;43941;-77
2024/04/08 13:42:06;;;;;;;;;8.50;6.75;;;;;;;;5578028;25;44010;-80
2024/04/08 13:44:31;;;;;;;;;10.75;6.50;;;;;;;;5583608;25;44044;-78
2024/04/08 13:46:57;;;;;;;;;7.25;6.00;;;;;;;;5582057;25;43783;-78
2024/04/08 13:49:22;;;;;;;;;8.00;6.50;;;;;;;;5547689;25;46046;-79
2024/04/08 13:51:54;;;;;;;;;5.75;5.75;;;;;;;;5583639;25;43898;-79
2024/04/08 13:54:24;;;;;;;;;6.25;4.75;;;;;;;;5584173;25;44117;-79
2024/04/08 13:56:49;;;;;;;;;6.00;5.75;;;;;;;;5583976;25;43992;-78
2024/04/08 13:59:14;;;;;;;;;7.75;7.00;;;;;;;;5546503;25;45814;-78
2024/04/08 14:01:40;;;;;;;;;6.75;6.00;;;;;;;;5544994;25;44099;-76
2024/04/08 14:04:05;;;;;;;;;7.25;5.00;;;;;;;;5572733;25;43787;-78
2024/04/08 14:06:30;;;;;;;;;8.50;7.75;;;;;;;;5567669;25;43880;-79
2024/04/08 14:08:55;;;;;;;;;6.25;6.25;;;;;;;;5531604;25;46810;-78
2024/04/08 14:11:20;;;;;;;;;7.75;7.25;;;;;;;;5543763;25;44445;-77
2024/04/08 14:13:45;;;;;;;;;6.00;5.75;;;;;;;;5567333;25;44040;-78
2024/04/08 14:16:10;;;;;;;;;6.00;5.00;;;;;;;;5577429;25;44194;-78
2024/04/08 14:18:36;;;;;;;;;9.75;8.00;;;;;;;;5572190;25;44091;-77
2024/04/08 14:21:01;;;;;;;;;8.00;6.00;;;;;;;;5577901;25;44000;-77
2024/04/08 14:23:27;;;;;;;;;6.75;5.50;;;;;;;;5578304;25;43959;-77
2024/04/08 14:25:52;;;;;;;;;9.00;8.00;;;;;;;;5577919;25;43757;-77